sensor_id;sensor_type;location;lat;lon;timestamp;pressure;altitude;pressure_sealevel;temperature;humidity
20228;BME280;12195;55.790;37.572;2023-02-18T00:01:38;99890.55;;;-6.25;68.66
20228;BME280;12195;55.790;37.572;2023-02-18T00:04:10;99897.37;;;-6.24;68.50
20228;BME280;12195;55.790;37.572;2023-02-18T00:06:42;99888.78;;;-6.29;68.56
20228;BME280;12195;55.790;37.572;2023-02-18T00:09:14;99882.78;;;-6.31;68.58
20228;BME280;12195;55.790;37.572;2023-02-18T00:11:47;99886.97;;;-6.36;68.55
20228;BME280;12195;55.790;37.572;2023-02-18T00:14:19;99886.94;;;-6.38;68.58
20228;BME280;12195;55.790;37.572;2023-02-18T00:16:51;99882.65;;;-6.40;68.58
20228;BME280;12195;55.790;37.572;2023-02-18T00:19:23;99876.66;;;-6.44;68.62
20228;BME280;12195;55.790;37.572;2023-02-18T00:21:55;99876.55;;;-6.50;68.79
20228;BME280;12195;55.790;37.572;2023-02-18T00:24:27;99876.52;;;-6.51;68.87
20228;BME280;12195;55.790;37.572;2023-02-18T00:26:59;99873.09;;;-6.53;68.95
20228;BME280;12195;55.790;37.572;2023-02-18T00:29:31;99872.20;;;-6.55;68.90
20228;BME280;12195;55.790;37.572;2023-02-18T00:32:04;99862.77;;;-6.59;69.17
20228;BME280;12195;55.790;37.572;2023-02-18T00:34:37;99865.33;;;-6.59;69.11
20228;BME280;12195;55.790;37.572;2023-02-18T00:37:09;99861.17;;;-6.53;68.84
20228;BME280;12195;55.790;37.572;2023-02-18T00:39:42;99861.14;;;-6.56;68.94
20228;BME280;12195;55.790;37.572;2023-02-18T00:42:15;99863.70;;;-6.56;68.96
20228;BME280;12195;55.790;37.572;2023-02-18T00:44:47;99860.27;;;-6.56;68.99
20228;BME280;12195;55.790;37.572;2023-02-18T00:47:19;99851.70;;;-6.61;69.11
20228;BME280;12195;55.790;37.572;2023-02-18T00:49:51;99844.04;;;-6.61;69.10
20228;BME280;12195;55.790;37.572;2023-02-18T00:52:24;99846.53;;;-6.64;69.15
20228;BME280;12195;55.790;37.572;2023-02-18T00:54:56;99840.54;;;-6.68;69.13
20228;BME280;12195;55.790;37.572;2023-02-18T00:57:30;99838.80;;;-6.70;69.22
20228;BME280;12195;55.790;37.572;2023-02-18T01:00:04;99839.61;;;-6.71;69.32
20228;BME280;12195;55.790;37.572;2023-02-18T01:02:37;99834.51;;;-6.71;69.35
20228;BME280;12195;55.790;37.572;2023-02-18T01:05:09;99831.95;;;-6.71;69.47
20228;BME280;12195;55.790;37.572;2023-02-18T01:07:41;99829.45;;;-6.68;69.37
20228;BME280;12195;55.790;37.572;2023-02-18T01:10:14;99820.94;;;-6.69;69.39
20228;BME280;12195;55.790;37.572;2023-02-18T01:12:48;99805.64;;;-6.67;69.29
20228;BME280;12195;55.790;37.572;2023-02-18T01:15:20;99794.63;;;-6.66;69.28
20228;BME280;12195;55.790;37.572;2023-02-18T01:17:52;99800.59;;;-6.64;69.20
20228;BME280;12195;55.790;37.572;2023-02-18T01:20:25;99785.23;;;-6.67;69.50
20228;BME280;12195;55.790;37.572;2023-02-18T01:22:57;99757.87;;;-6.77;69.07
20228;BME280;12195;55.790;37.572;2023-02-18T01:25:30;99774.13;;;-6.71;69.24
20228;BME280;12195;55.790;37.572;2023-02-18T01:28:04;99770.69;;;-6.74;69.32
20228;BME280;12195;55.790;37.572;2023-02-18T01:30:36;99772.34;;;-6.76;69.44
20228;BME280;12195;55.790;37.572;2023-02-18T01:33:08;99761.27;;;-6.78;69.41
20228;BME280;12195;55.790;37.572;2023-02-18T01:35:41;99759.56;;;-6.78;69.35
20228;BME280;12195;55.790;37.572;2023-02-18T01:38:13;99759.50;;;-6.81;69.40
20228;BME280;12195;55.790;37.572;2023-02-18T01:40:48;99747.56;;;-6.83;69.40
20228;BME280;12195;55.790;37.572;2023-02-18T01:43:22;99744.20;;;-6.82;69.34
20228;BME280;12195;55.790;37.572;2023-02-18T01:46:04;99744.99;;;-6.86;69.58
20228;BME280;12195;55.790;37.572;2023-02-18T01:48:38;99741.58;;;-6.87;69.52
20228;BME280;12195;55.790;37.572;2023-02-18T01:51:24;99735.58;;;-6.90;69.73
20228;BME280;12195;55.790;37.572;2023-02-18T01:54:09;99739.78;;;-6.92;69.55
20228;BME280;12195;55.790;37.572;2023-02-18T01:56:50;99729.53;;;-6.95;69.60
20228;BME280;12195;55.790;37.572;2023-02-18T01:59:22;99726.08;;;-6.99;69.49
20228;BME280;12195;55.790;37.572;2023-02-18T02:01:50;99716.67;;;-7.03;69.79
20228;BME280;12195;55.790;37.572;2023-02-18T02:04:22;99712.41;;;-7.04;69.73
20228;BME280;12195;55.790;37.572;2023-02-18T02:06:55;99708.97;;;-7.06;69.93
20228;BME280;12195;55.790;37.572;2023-02-18T02:09:30;99716.67;;;-7.03;70.02
20228;BME280;12195;55.790;37.572;2023-02-18T02:12:17;99707.41;;;-6.96;70.32
20228;BME280;12195;55.790;37.572;2023-02-18T02:38:36;99687.38;;;-5.99;68.17
20228;BME280;12195;55.790;37.572;2023-02-18T02:41:15;99684.86;;;-5.93;68.19
20228;BME280;12195;55.790;37.572;2023-02-18T02:46:36;99678.17;;;-5.82;67.89
20228;BME280;12195;55.790;37.572;2023-02-18T02:49:34;99673.06;;;-5.79;67.54
20228;BME280;12195;55.790;37.572;2023-02-18T02:52:08;99674.75;;;-5.80;67.59
20228;BME280;12195;55.790;37.572;2023-02-18T02:54:40;99673.08;;;-5.77;67.34
20228;BME280;12195;55.790;37.572;2023-02-18T03:00:03;99658.59;;;-5.81;67.33
20228;BME280;12195;55.790;37.572;2023-02-18T03:11:19;99641.53;;;-5.84;67.65
20228;BME280;12195;55.790;37.572;2023-02-18T03:14:03;99637.26;;;-5.83;67.54
20228;BME280;12195;55.790;37.572;2023-02-18T03:16:52;99632.17;;;-5.82;67.39
20228;BME280;12195;55.790;37.572;2023-02-18T03:19:36;99630.48;;;-5.81;67.33
20228;BME280;12195;55.790;37.572;2023-02-18T03:22:28;99621.09;;;-5.81;67.36
20228;BME280;12195;55.790;37.572;2023-02-18T03:25:01;99627.91;;;-5.83;67.51
20228;BME280;12195;55.790;37.572;2023-02-18T03:27:45;99616.85;;;-5.80;66.86
20228;BME280;12195;55.790;37.572;2023-02-18T03:30:43;99603.19;;;-5.80;66.73
20228;BME280;12195;55.790;37.572;2023-02-18T03:33:12;99603.13;;;-5.90;67.10
20228;BME280;12195;55.790;37.572;2023-02-18T03:35:46;99600.65;;;-5.84;67.29
20228;BME280;12195;55.790;37.572;2023-02-18T03:41:19;99591.17;;;-5.94;67.38
20228;BME280;12195;55.790;37.572;2023-02-18T03:43:59;99580.97;;;-5.92;67.27
20228;BME280;12195;55.790;37.572;2023-02-18T03:46:32;99574.11;;;-5.98;67.41
20228;BME280;12195;55.790;37.572;2023-02-18T03:49:05;99565.55;;;-6.03;67.85
20228;BME280;12195;55.790;37.572;2023-02-18T03:51:38;99561.31;;;-6.00;67.95
20228;BME280;12195;55.790;37.572;2023-02-18T03:54:10;99563.05;;;-5.98;68.19
20228;BME280;12195;55.790;37.572;2023-02-18T03:56:44;99561.33;;;-5.98;68.21
20228;BME280;12195;55.790;37.572;2023-02-18T03:59:16;99557.09;;;-5.97;68.49
20228;BME280;12195;55.790;37.572;2023-02-18T04:01:48;99552.84;;;-5.94;68.38
20228;BME280;12195;55.790;37.572;2023-02-18T04:04:20;99554.62;;;-5.87;68.15
20228;BME280;12195;55.790;37.572;2023-02-18T04:06:53;99546.06;;;-5.89;67.84
20228;BME280;12195;55.790;37.572;2023-02-18T04:09:25;99549.47;;;-5.90;67.92
20228;BME280;12195;55.790;37.572;2023-02-18T04:11:57;99547.73;;;-5.94;67.96
20228;BME280;12195;55.790;37.572;2023-02-18T04:14:29;99545.17;;;-5.96;68.06
20228;BME280;12195;55.790;37.572;2023-02-18T04:17:01;99550.28;;;-5.96;67.94
20228;BME280;12195;55.790;37.572;2023-02-18T04:19:34;99541.72;;;-6.02;68.28
20228;BME280;12195;55.790;37.572;2023-02-18T04:22:06;99535.72;;;-6.07;68.45
20228;BME280;12195;55.790;37.572;2023-02-18T04:24:38;99534.88;;;-6.05;68.46
20228;BME280;12195;55.790;37.572;2023-02-18T04:27:10;99522.93;;;-6.09;68.54
20228;BME280;12195;55.790;37.572;2023-02-18T04:29:43;99528.91;;;-6.08;68.69
20228;BME280;12195;55.790;37.572;2023-02-18T04:32:15;99526.37;;;-6.07;68.68
20228;BME280;12195;55.790;37.572;2023-02-18T04:34:47;99507.60;;;-6.09;68.94
20228;BME280;12195;55.790;37.572;2023-02-18T04:37:19;99501.64;;;-6.08;68.86
20228;BME280;12195;55.790;37.572;2023-02-18T04:39:52;99497.45;;;-6.02;68.82
20228;BME280;12195;55.790;37.572;2023-02-18T04:42:24;99511.12;;;-5.93;68.46
20228;BME280;12195;55.790;37.572;2023-02-18T04:44:56;99509.38;;;-5.97;68.58
20228;BME280;12195;55.790;37.572;2023-02-18T04:47:30;99502.55;;;-6.00;68.48
20228;BME280;12195;55.790;37.572;2023-02-18T04:50:03;99503.42;;;-5.99;68.48
20228;BME280;12195;55.790;37.572;2023-02-18T04:52:35;99494.04;;;-6.02;68.66
20228;BME280;12195;55.790;37.572;2023-02-18T04:55:08;99489.83;;;-5.95;68.35
20228;BME280;12195;55.790;37.572;2023-02-18T04:57:41;99491.50;;;-5.97;68.52
20228;BME280;12195;55.790;37.572;2023-02-18T05:00:15;99491.50;;;-5.97;68.73
20228;BME280;12195;55.790;37.572;2023-02-18T05:02:48;99487.27;;;-5.97;68.89
20228;BME280;12195;55.790;37.572;2023-02-18T05:05:21;99499.23;;;-5.91;68.82
20228;BME280;12195;55.790;37.572;2023-02-18T05:07:53;99489.02;;;-5.87;68.60
20228;BME280;12195;55.790;37.572;2023-02-18T05:10:25;99500.08;;;-5.89;68.61
20228;BME280;12195;55.790;37.572;2023-02-18T05:12:57;99478.84;;;-5.77;68.35
20228;BME280;12195;55.790;37.572;2023-02-18T05:15:30;99469.42;;;-5.92;68.38
20228;BME280;12195;55.790;37.572;2023-02-18T05:18:03;99473.69;;;-5.89;68.30
20228;BME280;12195;55.790;37.572;2023-02-18T05:20:35;99476.20;;;-5.94;68.71
20228;BME280;12195;55.790;37.572;2023-02-18T05:23:07;99465.19;;;-5.87;68.46
20228;BME280;12195;55.790;37.572;2023-02-18T05:25:39;99468.60;;;-5.83;68.45
20228;BME280;12195;55.790;37.572;2023-02-18T05:28:11;99455.80;;;-5.87;68.59
20228;BME280;12195;55.790;37.572;2023-02-18T05:30:43;99464.34;;;-5.84;68.71
20228;BME280;12195;55.790;37.572;2023-02-18T05:33:16;99447.31;;;-5.78;68.65
20228;BME280;12195;55.790;37.572;2023-02-18T05:35:51;99450.73;;;-5.75;68.86
20228;BME280;12195;55.790;37.572;2023-02-18T05:38:24;99437.13;;;-5.69;68.60
20228;BME280;12195;55.790;37.572;2023-02-18T05:40:56;99430.36;;;-5.65;68.77
20228;BME280;12195;55.790;37.572;2023-02-18T05:43:28;99442.28;;;-5.60;68.72
20228;BME280;12195;55.790;37.572;2023-02-18T05:46:01;99429.55;;;-5.54;68.43
20228;BME280;12195;55.790;37.572;2023-02-18T05:48:35;99429.57;;;-5.51;67.95
20228;BME280;12195;55.790;37.572;2023-02-18T05:51:08;99418.48;;;-5.51;68.40
20228;BME280;12195;55.790;37.572;2023-02-18T05:53:41;99411.64;;;-5.55;68.26
20228;BME280;12195;55.790;37.572;2023-02-18T05:56:13;99403.98;;;-5.54;68.42
20228;BME280;12195;55.790;37.572;2023-02-18T05:58:45;99395.45;;;-5.53;68.48
20228;BME280;12195;55.790;37.572;2023-02-18T06:01:17;99392.94;;;-5.47;68.28
20228;BME280;12195;55.790;37.572;2023-02-18T06:03:50;99390.39;;;-5.41;67.95
20228;BME280;12195;55.790;37.572;2023-02-18T06:06:23;99389.53;;;-5.40;68.16
20228;BME280;12195;55.790;37.572;2023-02-18T06:08:56;99389.55;;;-5.37;68.09
20228;BME280;12195;55.790;37.572;2023-02-18T06:11:28;99387.01;;;-5.34;68.01
20228;BME280;12195;55.790;37.572;2023-02-18T06:14:00;99392.14;;;-5.25;67.78
20228;BME280;12195;55.790;37.572;2023-02-18T06:16:35;99387.88;;;-5.27;67.62
20228;BME280;12195;55.790;37.572;2023-02-18T06:19:08;99376.80;;;-5.25;67.95
20228;BME280;12195;55.790;37.572;2023-02-18T06:21:40;99384.48;;;-5.17;67.78
20228;BME280;12195;55.790;37.572;2023-02-18T06:24:12;99372.58;;;-5.05;67.59
20228;BME280;12195;55.790;37.572;2023-02-18T06:26:45;99369.16;;;-5.02;67.31
20228;BME280;12195;55.790;37.572;2023-02-18T06:29:17;99360.64;;;-5.06;67.45
20228;BME280;12195;55.790;37.572;2023-02-18T06:31:50;99359.78;;;-4.97;67.23
20228;BME280;12195;55.790;37.572;2023-02-18T06:34:23;99352.10;;;-4.90;66.94
20228;BME280;12195;55.790;37.572;2023-02-18T06:36:55;99346.14;;;-4.84;67.08
20228;BME280;12195;55.790;37.572;2023-02-18T06:39:30;99358.94;;;-4.83;66.29
20228;BME280;12195;55.790;37.572;2023-02-18T06:42:03;99351.26;;;-4.74;66.28
20228;BME280;12195;55.790;37.572;2023-02-18T06:44:35;99356.39;;;-4.81;65.76
20228;BME280;12195;55.790;37.572;2023-02-18T06:47:08;99343.59;;;-4.81;65.79
20228;BME280;12195;55.790;37.572;2023-02-18T06:49:40;99336.77;;;-4.72;66.14
20228;BME280;12195;55.790;37.572;2023-02-18T06:52:12;99335.90;;;-4.60;65.50
20228;BME280;12195;55.790;37.572;2023-02-18T06:54:44;99329.06;;;-4.55;64.59
20228;BME280;12195;55.790;37.572;2023-02-18T06:57:17;99327.36;;;-4.58;64.67
20228;BME280;12195;55.790;37.572;2023-02-18T06:59:50;99318.84;;;-4.58;64.86
20228;BME280;12195;55.790;37.572;2023-02-18T07:02:22;99314.56;;;-4.52;65.07
20228;BME280;12195;55.790;37.572;2023-02-18T07:04:55;99318.83;;;-4.49;64.56
20228;BME280;12195;55.790;37.572;2023-02-18T07:07:27;99312.84;;;-4.45;64.53
20228;BME280;12195;55.790;37.572;2023-02-18T07:09:59;99312.82;;;-4.35;64.56
20228;BME280;12195;55.790;37.572;2023-02-18T07:12:31;99294.86;;;-4.27;64.16
20228;BME280;12195;55.790;37.572;2023-02-18T07:15:04;99295.69;;;-4.21;63.18
20228;BME280;12195;55.790;37.572;2023-02-18T07:17:37;99299.95;;;-4.11;63.35
20228;BME280;12195;55.790;37.572;2023-02-18T07:20:09;99293.95;;;-4.11;63.05
20228;BME280;12195;55.790;37.572;2023-02-18T07:22:42;99287.10;;;-4.05;63.44
20228;BME280;12195;55.790;37.572;2023-02-18T07:25:14;99279.36;;;-3.93;63.29
20228;BME280;12195;55.790;37.572;2023-02-18T07:27:47;99270.80;;;-3.86;62.29
20228;BME280;12195;55.790;37.572;2023-02-18T07:30:20;99272.48;;;-3.79;62.51
20228;BME280;12195;55.790;37.572;2023-02-18T07:32:53;99269.87;;;-3.73;61.33
20228;BME280;12195;55.790;37.572;2023-02-18T07:35:25;99269.88;;;-3.77;61.60
20228;BME280;12195;55.790;37.572;2023-02-18T07:37:57;99264.75;;;-3.74;61.13
20228;BME280;12195;55.790;37.572;2023-02-18T07:40:30;99263.00;;;-3.68;61.22
20228;BME280;12195;55.790;37.572;2023-02-18T07:43:02;99246.72;;;-3.59;60.52
20228;BME280;12195;55.790;37.572;2023-02-18T07:45:39;99258.73;;;-3.67;60.15
20228;BME280;12195;55.790;37.572;2023-02-18T07:48:13;99247.55;;;-3.59;60.76
20228;BME280;12195;55.790;37.572;2023-02-18T07:50:45;99243.23;;;-3.51;59.88
20228;BME280;12195;55.790;37.572;2023-02-18T07:53:19;99245.80;;;-3.51;60.14
20228;BME280;12195;55.790;37.572;2023-02-18T07:55:52;99237.22;;;-3.47;60.14
20228;BME280;12195;55.790;37.572;2023-02-18T07:58:30;99226.06;;;-3.40;59.57
20228;BME280;12195;55.790;37.572;2023-02-18T08:01:07;99218.35;;;-3.37;60.11
20228;BME280;12195;55.790;37.572;2023-02-18T08:03:40;99220.81;;;-3.22;59.69
20228;BME280;12195;55.790;37.572;2023-02-18T08:06:22;99223.33;;;-3.19;59.96
20228;BME280;12195;55.790;37.572;2023-02-18T08:08:56;99219.86;;;-3.12;60.00
20228;BME280;12195;55.790;37.572;2023-02-18T08:11:30;99213.76;;;-3.00;59.31
20228;BME280;12195;55.790;37.572;2023-02-18T08:14:03;99211.98;;;-2.94;60.03
20228;BME280;12195;55.790;37.572;2023-02-18T08:16:36;99208.49;;;-2.85;60.48
20228;BME280;12195;55.790;37.572;2023-02-18T08:19:10;99200.70;;;-2.78;59.57
20228;BME280;12195;55.790;37.572;2023-02-18T08:21:43;99185.19;;;-2.69;60.31
20228;BME280;12195;55.790;37.572;2023-02-18T08:24:16;99190.17;;;-2.54;60.43
20228;BME280;12195;55.790;37.572;2023-02-18T08:26:48;99179.75;;;-2.40;60.41
20228;BME280;12195;55.790;37.572;2023-02-18T08:29:22;99170.98;;;-2.24;59.63
20228;BME280;12195;55.790;37.572;2023-02-18T08:31:55;99177.66;;;-2.10;59.82
20228;BME280;12195;55.790;37.572;2023-02-18T08:34:28;99178.37;;;-1.99;58.87
20228;BME280;12195;55.790;37.572;2023-02-18T08:37:01;99176.50;;;-1.89;59.33
20228;BME280;12195;55.790;37.572;2023-02-18T08:39:35;99156.69;;;-1.83;59.21
20228;BME280;12195;55.790;37.572;2023-02-18T08:42:09;99160.86;;;-1.74;58.66
20228;BME280;12195;55.790;37.572;2023-02-18T08:44:41;99145.46;;;-1.77;57.83
20228;BME280;12195;55.790;37.572;2023-02-18T08:47:14;99151.45;;;-1.75;58.58
20228;BME280;12195;55.790;37.572;2023-02-18T08:49:47;99145.39;;;-1.71;58.39
20228;BME280;12195;55.790;37.572;2023-02-18T08:52:20;99134.09;;;-1.63;58.02
20228;BME280;12195;55.790;37.572;2023-02-18T08:54:53;99137.35;;;-1.52;58.05
20228;BME280;12195;55.790;37.572;2023-02-18T08:57:27;99113.31;;;-1.51;58.10
20228;BME280;12195;55.790;37.572;2023-02-18T08:59:59;99129.47;;;-1.43;58.33
20228;BME280;12195;55.790;37.572;2023-02-18T09:02:32;99125.88;;;-1.31;57.80
20228;BME280;12195;55.790;37.572;2023-02-18T09:05:05;99118.95;;;-1.29;57.88
20228;BME280;12195;55.790;37.572;2023-02-18T09:07:38;99120.67;;;-1.30;57.27
20228;BME280;12195;55.790;37.572;2023-02-18T09:10:11;99112.14;;;-1.32;56.67
20228;BME280;12195;55.790;37.572;2023-02-18T09:12:43;99092.41;;;-1.31;57.43
20228;BME280;12195;55.790;37.572;2023-02-18T09:15:16;99095.77;;;-1.28;57.23
20228;BME280;12195;55.790;37.572;2023-02-18T09:17:49;99088.80;;;-1.23;57.09
20228;BME280;12195;55.790;37.572;2023-02-18T09:20:22;99087.11;;;-1.24;57.32
20228;BME280;12195;55.790;37.572;2023-02-18T09:22:54;99086.27;;;-1.26;57.56
20228;BME280;12195;55.790;37.572;2023-02-18T09:25:28;99079.41;;;-1.25;57.42
20228;BME280;12195;55.790;37.572;2023-02-18T09:28:01;99077.79;;;-1.31;57.64
20228;BME280;12195;55.790;37.572;2023-02-18T09:30:38;99070.17;;;-1.35;57.59
20228;BME280;12195;55.790;37.572;2023-02-18T09:33:12;99064.23;;;-1.40;57.70
20228;BME280;12195;55.790;37.572;2023-02-18T09:35:45;99054.88;;;-1.46;58.42
20228;BME280;12195;55.790;37.572;2023-02-18T09:38:18;99048.95;;;-1.49;58.75
20228;BME280;12195;55.790;37.572;2023-02-18T09:40:52;99041.20;;;-1.48;58.92
20228;BME280;12195;55.790;37.572;2023-02-18T09:43:31;99033.30;;;-1.37;58.92
20228;BME280;12195;55.790;37.572;2023-02-18T09:46:04;99030.64;;;-1.33;58.61
20228;BME280;12195;55.790;37.572;2023-02-18T09:48:39;99031.36;;;-1.25;59.35
20228;BME280;12195;55.790;37.572;2023-02-18T09:51:15;99024.18;;;-1.09;59.86
20228;BME280;12195;55.790;37.572;2023-02-18T09:53:48;99028.13;;;-0.92;58.86
20228;BME280;12195;55.790;37.572;2023-02-18T09:56:25;99015.03;;;-0.81;57.83
20228;BME280;12195;55.790;37.572;2023-02-18T09:58:58;99003.55;;;-0.67;58.75
20228;BME280;12195;55.790;37.572;2023-02-18T10:01:36;99011.73;;;-0.48;58.50
20228;BME280;12195;55.790;37.572;2023-02-18T10:04:27;99001.70;;;-0.24;59.10
20228;BME280;12195;55.790;37.572;2023-02-18T10:06:54;98993.39;;;0.00;57.71
20228;BME280;12195;55.790;37.572;2023-02-18T10:09:35;98983.47;;;0.19;57.03
20228;BME280;12195;55.790;37.572;2023-02-18T10:12:19;98976.31;;;0.30;56.46
20228;BME280;12195;55.790;37.572;2023-02-18T10:14:55;98958.03;;;0.38;56.68
20228;BME280;12195;55.790;37.572;2023-02-18T10:17:32;98962.13;;;0.46;56.70
20228;BME280;12195;55.790;37.572;2023-02-18T10:20:05;98950.00;;;0.48;55.74
20228;BME280;12195;55.790;37.572;2023-02-18T10:22:38;98941.03;;;0.61;55.94
20228;BME280;12195;55.790;37.572;2023-02-18T10:25:21;98939.42;;;0.88;55.12
20228;BME280;12195;55.790;37.572;2023-02-18T10:27:48;98949.59;;;0.94;53.46
20228;BME280;12195;55.790;37.572;2023-02-18T10:30:32;98935.03;;;0.91;53.65
20228;BME280;12195;55.790;37.572;2023-02-18T10:36:26;98935.74;;;0.96;53.14
20228;BME280;12195;55.790;37.572;2023-02-18T10:38:59;98918.75;;;0.88;51.61
20228;BME280;12195;55.790;37.572;2023-02-18T10:41:47;98926.22;;;0.68;52.11
20228;BME280;12195;55.790;37.572;2023-02-18T10:50:16;98910.83;;;0.65;53.60
20228;BME280;12195;55.790;37.572;2023-02-18T10:52:43;98908.02;;;0.72;53.16
20228;BME280;12195;55.790;37.572;2023-02-18T10:55:16;98912.17;;;0.78;53.27
20228;BME280;12195;55.790;37.572;2023-02-18T10:57:53;98900.31;;;0.71;52.96
20228;BME280;12195;55.790;37.572;2023-02-18T11:00:31;98899.86;;;0.57;53.88
20228;BME280;12195;55.790;37.572;2023-02-18T11:03:22;98895.41;;;0.62;53.96
20228;BME280;12195;55.790;37.572;2023-02-18T11:05:56;98889.55;;;0.86;53.81
20228;BME280;12195;55.790;37.572;2023-02-18T11:08:35;98886.74;;;1.21;52.66
20228;BME280;12195;55.790;37.572;2023-02-18T11:11:08;98878.19;;;1.46;51.80
20228;BME280;12195;55.790;37.572;2023-02-18T11:13:41;98879.70;;;1.53;50.93
20228;BME280;12195;55.790;37.572;2023-02-18T11:16:15;98868.70;;;1.47;50.69
20228;BME280;12195;55.790;37.572;2023-02-18T11:18:48;98859.83;;;1.54;51.63
20228;BME280;12195;55.790;37.572;2023-02-18T11:21:30;98874.74;;;1.98;50.53
20228;BME280;12195;55.790;37.572;2023-02-18T11:24:18;98874.74;;;1.98;50.53
20228;BME280;12195;55.790;37.572;2023-02-18T11:26:46;98858.85;;;2.33;50.04
20228;BME280;12195;55.790;37.572;2023-02-18T11:29:23;98852.19;;;2.26;48.97
20228;BME280;12195;55.790;37.572;2023-02-18T11:31:56;98852.14;;;2.27;48.50
20228;BME280;12195;55.790;37.572;2023-02-18T11:34:33;98846.86;;;2.30;49.06
20228;BME280;12195;55.790;37.572;2023-02-18T11:37:21;98838.34;;;2.27;48.45
20228;BME280;12195;55.790;37.572;2023-02-18T11:39:51;98841.20;;;2.19;48.32
20228;BME280;12195;55.790;37.572;2023-02-18T11:42:26;98833.77;;;2.10;48.31
20228;BME280;12195;55.790;37.572;2023-02-18T11:44:59;98833.28;;;1.99;48.63
20228;BME280;12195;55.790;37.572;2023-02-18T11:47:35;98827.11;;;1.79;48.30
20228;BME280;12195;55.790;37.572;2023-02-18T11:52:48;98820.66;;;1.40;49.43
20228;BME280;12195;55.790;37.572;2023-02-18T11:55:23;98809.11;;;1.24;50.15
20228;BME280;12195;55.790;37.572;2023-02-18T11:58:02;98803.34;;;1.16;50.10
20228;BME280;12195;55.790;37.572;2023-02-18T12:00:41;98823.52;;;1.05;50.91
20228;BME280;12195;55.790;37.572;2023-02-18T12:03:26;98804.26;;;0.87;52.06
20228;BME280;12195;55.790;37.572;2023-02-18T12:05:57;98797.95;;;0.68;51.79
20228;BME280;12195;55.790;37.572;2023-02-18T12:08:34;98788.64;;;0.63;52.33
20228;BME280;12195;55.790;37.572;2023-02-18T12:11:14;98791.38;;;0.58;52.58
20228;BME280;12195;55.790;37.572;2023-02-18T12:13:52;98786.05;;;0.63;52.39
20228;BME280;12195;55.790;37.572;2023-02-18T12:19:37;98774.56;;;1.00;52.25
20228;BME280;12195;55.790;37.572;2023-02-18T12:27:59;98769.16;;;1.34;51.05
20228;BME280;12195;55.790;37.572;2023-02-18T12:44:24;98778.47;;;0.86;51.01
20228;BME280;12195;55.790;37.572;2023-02-18T12:53:01;98748.59;;;0.50;52.14
20228;BME280;12195;55.790;37.572;2023-02-18T13:09:48;98737.85;;;-0.24;52.29
20228;BME280;12195;55.790;37.572;2023-02-18T13:15:30;98745.70;;;-0.61;53.37
20228;BME280;12195;55.790;37.572;2023-02-18T13:17:59;98737.17;;;-0.63;53.97
20228;BME280;12195;55.790;37.572;2023-02-18T13:20:40;98726.66;;;-0.89;53.77
20228;BME280;12195;55.790;37.572;2023-02-18T13:23:16;98724.78;;;-1.16;55.05
20228;BME280;12195;55.790;37.572;2023-02-18T13:25:54;98730.19;;;-1.26;55.53
20228;BME280;12195;55.790;37.572;2023-02-18T13:28:29;98728.66;;;-1.35;56.07
20228;BME280;12195;55.790;37.572;2023-02-18T13:39:26;98727.94;;;-1.78;57.63
20228;BME280;12195;55.790;37.572;2023-02-18T13:47:44;98721.53;;;-2.00;58.23
20228;BME280;12195;55.790;37.572;2023-02-18T13:50:28;98715.67;;;-2.06;58.35
20228;BME280;12195;55.790;37.572;2023-02-18T13:55:57;98712.52;;;-2.19;59.10
20228;BME280;12195;55.790;37.572;2023-02-18T13:58:43;98701.58;;;-2.28;59.45
20228;BME280;12195;55.790;37.572;2023-02-18T14:01:32;98701.66;;;-2.33;59.94
20228;BME280;12195;55.790;37.572;2023-02-18T14:03:59;98694.08;;;-2.39;60.15
20228;BME280;12195;55.790;37.572;2023-02-18T14:06:34;98693.38;;;-2.47;60.23
20228;BME280;12195;55.790;37.572;2023-02-18T14:11:54;98693.38;;;-2.47;60.39
20228;BME280;12195;55.790;37.572;2023-02-18T14:14:33;98689.20;;;-2.52;60.80
20228;BME280;12195;55.790;37.572;2023-02-18T14:22:51;98687.49;;;-2.52;61.02
20228;BME280;12195;55.790;37.572;2023-02-18T14:25:36;98678.07;;;-2.53;61.20
20228;BME280;12195;55.790;37.572;2023-02-18T14:36:58;98657.68;;;-2.60;61.15
20228;BME280;12195;55.790;37.572;2023-02-18T14:39:34;98668.03;;;-2.65;61.10
20228;BME280;12195;55.790;37.572;2023-02-18T14:42:25;98661.11;;;-2.60;61.06
20228;BME280;12195;55.790;37.572;2023-02-18T14:50:41;98662.66;;;-2.53;60.34
20228;BME280;12195;55.790;37.572;2023-02-18T14:53:24;98655.95;;;-2.58;60.25
20228;BME280;12195;55.790;37.572;2023-02-18T14:55:52;98644.11;;;-2.67;60.54
20228;BME280;12195;55.790;37.572;2023-02-18T14:58:36;98639.03;;;-2.70;60.38
20228;BME280;12195;55.790;37.572;2023-02-18T15:01:21;98652.02;;;-2.77;60.56
20228;BME280;12195;55.790;37.572;2023-02-18T15:03:51;98639.08;;;-2.73;60.58
20228;BME280;12195;55.790;37.572;2023-02-18T15:06:30;98643.59;;;-2.84;60.84
20228;BME280;12195;55.790;37.572;2023-02-18T15:09:19;98639.46;;;-2.92;61.29
20228;BME280;12195;55.790;37.572;2023-02-18T15:12:06;98642.98;;;-2.98;61.70
20228;BME280;12195;55.790;37.572;2023-02-18T15:14:40;98624.11;;;-2.95;61.58
20228;BME280;12195;55.790;37.572;2023-02-18T15:17:16;98634.44;;;-2.97;61.71
20228;BME280;12195;55.790;37.572;2023-02-18T15:20:03;98622.58;;;-3.04;62.01
20228;BME280;12195;55.790;37.572;2023-02-18T15:22:32;98621.63;;;-2.98;61.92
20228;BME280;12195;55.790;37.572;2023-02-18T15:25:08;98629.34;;;-3.00;61.81
20228;BME280;12195;55.790;37.572;2023-02-18T15:27:42;98627.66;;;-3.01;61.71
20228;BME280;12195;55.790;37.572;2023-02-18T15:30:30;98605.31;;;-2.96;61.17
20228;BME280;12195;55.790;37.572;2023-02-18T15:33:02;98611.48;;;-3.06;61.43
20228;BME280;12195;55.790;37.572;2023-02-18T15:35:39;98609.75;;;-3.04;61.19
20228;BME280;12195;55.790;37.572;2023-02-18T15:38:19;98601.30;;;-3.09;61.29
20228;BME280;12195;55.790;37.572;2023-02-18T15:40:53;98599.34;;;-2.98;60.86
20228;BME280;12195;55.790;37.572;2023-02-18T15:43:26;98597.89;;;-3.11;61.42
20228;BME280;12195;55.790;37.572;2023-02-18T15:45:59;98612.28;;;-3.02;61.38
20228;BME280;12195;55.790;37.572;2023-02-18T15:51:12;98594.57;;;-3.16;61.30
20228;BME280;12195;55.790;37.572;2023-02-18T15:53:50;98586.02;;;-3.16;61.47